createdAt,value
2023-05-20T00:00:55.468Z,16.60
2023-05-20T00:03:22.789Z,16.75
2023-05-20T00:05:50.065Z,14.70
2023-05-20T00:08:19.606Z,14.77
2023-05-20T00:10:46.682Z,14.95
2023-05-20T00:13:13.666Z,15.48
2023-05-20T00:15:40.659Z,15.40
2023-05-20T00:18:08.161Z,15.43
2023-05-20T00:20:35.123Z,14.80
2023-05-20T00:23:02.216Z,16.80
2023-05-20T00:25:31.108Z,16.60
2023-05-20T00:27:58.330Z,16.67
2023-05-20T00:30:25.286Z,16.83
2023-05-20T00:32:52.423Z,17.38
2023-05-20T00:35:19.383Z,16.77
2023-05-20T00:37:46.403Z,17.23
2023-05-20T00:40:15.477Z,17.13
2023-05-20T00:42:43.698Z,17.88
2023-05-20T00:45:11.220Z,16.85
2023-05-20T00:47:39.599Z,17.50
2023-05-20T00:50:10.380Z,16.35
2023-05-20T00:52:39.782Z,17.40
2023-05-20T00:55:07.118Z,17.27
2023-05-20T00:57:34.132Z,17.20
2023-05-20T01:00:01.395Z,17.58
2023-05-20T01:02:29.105Z,17.65
2023-05-20T01:04:57.047Z,16.50
2023-05-20T01:07:25.712Z,17.15
2023-05-20T01:09:54.524Z,17.50
2023-05-20T01:12:28.397Z,17.95
2023-05-20T01:15:04.076Z,18.60
2023-05-20T01:17:33.473Z,17.05
2023-05-20T01:20:02.925Z,16.63
2023-05-20T01:22:30.394Z,16.70
2023-05-20T01:24:57.759Z,18.10
2023-05-20T01:27:26.804Z,17.33
2023-05-20T01:29:54.587Z,17.50
2023-05-20T01:32:25.380Z,16.08
2023-05-20T01:34:53.745Z,17.83
2023-05-20T01:37:23.338Z,17.33
2023-05-20T01:39:51.416Z,16.80
2023-05-20T01:42:21.016Z,16.70
2023-05-20T01:47:15.602Z,17.67
2023-05-20T01:49:42.607Z,17.05
2023-05-20T01:52:09.666Z,16.67
2023-05-20T01:54:36.673Z,17.02
2023-05-20T01:57:03.799Z,17.80
2023-05-20T01:59:31.153Z,17.38
2023-05-20T02:01:58.257Z,17.13
2023-05-20T02:04:25.309Z,17.17
2023-05-20T02:06:52.355Z,16.38
2023-05-20T02:09:19.376Z,16.38
2023-05-20T02:11:46.343Z,17.10
2023-05-20T02:14:13.381Z,16.75
2023-05-20T02:16:40.410Z,16.98
2023-05-20T02:19:13.067Z,17.70
2023-05-20T02:21:42.096Z,15.15
2023-05-20T02:24:10.246Z,15.23
2023-05-20T02:26:37.326Z,15.40
2023-05-20T02:29:04.307Z,15.98
2023-05-20T02:31:31.336Z,15.05
2023-05-20T02:33:58.302Z,14.98
2023-05-20T02:36:25.438Z,16.25
2023-05-20T02:38:54.897Z,14.63
2023-05-20T02:41:21.988Z,15.00
2023-05-20T02:43:49.013Z,13.82
2023-05-20T02:46:18.886Z,15.30
2023-05-20T02:51:12.859Z,14.55
2023-05-20T02:53:39.915Z,13.45
2023-05-20T02:56:08.951Z,13.98
2023-05-20T02:58:36.400Z,13.05
2023-05-20T03:01:03.757Z,13.82
2023-05-20T03:03:31.125Z,13.68
2023-05-20T03:05:58.164Z,13.73
2023-05-20T03:08:25.354Z,14.07
2023-05-20T03:10:52.292Z,13.13
2023-05-20T03:13:19.334Z,12.90
2023-05-20T03:15:46.583Z,13.95
2023-05-20T03:18:16.531Z,13.32
2023-05-20T03:20:44.903Z,13.23
2023-05-20T03:23:12.089Z,13.43
2023-05-20T03:25:39.586Z,13.25
2023-05-20T03:28:07.170Z,13.88
2023-05-20T03:30:36.710Z,12.98
2023-05-20T03:33:06.138Z,12.90
2023-05-20T03:35:33.640Z,12.55
2023-05-20T03:38:02.027Z,13.73
2023-05-20T03:40:29.553Z,12.88
2023-05-20T03:42:56.575Z,13.80
2023-05-20T03:45:24.560Z,11.63
2023-05-20T03:48:04.999Z,13.00
2023-05-20T03:50:34.151Z,13.77
2023-05-20T03:53:01.697Z,13.00
2023-05-20T03:55:35.175Z,12.65
2023-05-20T03:58:02.736Z,13.07
2023-05-20T04:00:31.765Z,14.02
2023-05-20T04:02:59.261Z,13.13
2023-05-20T04:05:26.904Z,13.45
2023-05-20T04:07:55.310Z,12.68
2023-05-20T04:10:24.273Z,12.35
2023-05-20T04:12:52.721Z,12.57
2023-05-20T04:15:20.941Z,13.03
2023-05-20T04:17:59.115Z,13.65
2023-05-20T04:20:26.206Z,12.88
2023-05-20T04:22:56.413Z,13.60
2023-05-20T04:25:24.301Z,12.70
2023-05-20T04:27:54.297Z,14.30
2023-05-20T04:30:22.275Z,12.55
2023-05-20T04:32:51.090Z,12.93
2023-05-20T04:35:18.623Z,13.20
2023-05-20T04:37:48.358Z,13.38
2023-05-20T04:40:17.251Z,13.90
2023-05-20T04:42:45.072Z,12.93
2023-05-20T04:45:13.839Z,13.90
2023-05-20T04:47:42.196Z,14.40
2023-05-20T04:50:13.829Z,13.10
2023-05-20T04:52:43.424Z,14.32
2023-05-20T04:57:42.616Z,12.55
2023-05-20T05:00:12.835Z,12.93
2023-05-20T05:02:40.925Z,13.50
2023-05-20T05:05:08.653Z,12.85
2023-05-20T05:07:36.141Z,12.52
2023-05-20T05:10:03.350Z,13.40
2023-05-20T05:12:31.941Z,13.60
2023-05-20T05:14:59.542Z,12.52
2023-05-20T05:17:29.252Z,13.05
2023-05-20T05:19:57.881Z,11.85
2023-05-20T05:22:26.448Z,12.38
2023-05-20T05:24:53.622Z,12.55
2023-05-20T05:27:21.365Z,13.32
2023-05-20T05:29:48.390Z,12.02
2023-05-20T05:32:15.306Z,11.25
2023-05-20T05:34:42.381Z,11.10
2023-05-20T05:37:09.333Z,11.80
2023-05-20T05:39:37.946Z,11.07
2023-05-20T05:42:06.179Z,10.98
2023-05-20T05:44:34.496Z,10.87
2023-05-20T05:47:03.435Z,10.80
2023-05-20T05:49:30.719Z,10.95
2023-05-20T05:51:57.743Z,10.98
2023-05-20T05:54:25.582Z,11.05
2023-05-20T05:56:53.441Z,11.35
2023-05-20T05:59:21.158Z,10.43
2023-05-20T06:01:48.739Z,10.38
2023-05-20T06:04:16.213Z,10.90
2023-05-20T06:06:43.273Z,10.50
2023-05-20T06:09:10.325Z,9.90
2023-05-20T06:11:37.331Z,9.48
2023-05-20T06:14:04.379Z,9.55
2023-05-20T06:16:31.603Z,10.63
2023-05-20T06:19:03.370Z,10.10
2023-05-20T06:21:32.928Z,10.38
2023-05-20T06:24:00.273Z,10.37
2023-05-20T06:26:27.555Z,11.13
2023-05-20T06:28:54.698Z,10.73
2023-05-20T06:31:22.668Z,10.65
2023-05-20T06:33:51.419Z,9.73
2023-05-20T06:36:18.665Z,11.00
2023-05-20T06:38:46.657Z,9.60
2023-05-20T06:41:15.354Z,11.18
2023-05-20T06:43:42.345Z,10.25
2023-05-20T06:46:29.918Z,11.52
2023-05-20T06:49:04.769Z,8.95
2023-05-20T06:51:31.785Z,9.50
2023-05-20T06:54:00.266Z,9.82
2023-05-20T06:56:27.450Z,10.02
2023-05-20T06:58:55.837Z,9.98
2023-05-20T07:01:23.269Z,10.88
2023-05-20T07:03:50.514Z,10.32
2023-05-20T07:06:17.867Z,11.25
2023-05-20T07:08:45.138Z,11.55
2023-05-20T07:11:12.868Z,11.45
2023-05-20T07:13:40.006Z,12.40
2023-05-20T07:16:07.171Z,10.60
2023-05-20T07:18:36.654Z,10.52
2023-05-20T07:21:03.667Z,10.10
2023-05-20T07:23:41.999Z,10.40
2023-05-20T07:26:10.805Z,9.90
2023-05-20T07:28:39.165Z,10.68
2023-05-20T07:31:06.363Z,11.07
2023-05-20T07:33:39.340Z,10.00
2023-05-20T07:36:08.009Z,9.45
2023-05-20T07:38:39.525Z,10.75
2023-05-20T07:41:08.663Z,9.98
2023-05-20T07:43:35.685Z,10.30
2023-05-20T07:46:03.853Z,9.48
2023-05-20T07:48:31.098Z,9.15
2023-05-20T07:50:59.491Z,9.40
2023-05-20T07:53:27.585Z,10.13
2023-05-20T07:55:55.133Z,9.73
2023-05-20T07:58:22.329Z,10.13
2023-05-20T08:00:50.473Z,9.25
2023-05-20T08:03:17.776Z,9.88
2023-05-20T08:06:14.324Z,10.52
2023-05-20T08:08:43.415Z,10.77
2023-05-20T08:11:18.239Z,8.73
2023-05-20T08:13:45.306Z,9.65
2023-05-20T08:16:12.372Z,8.32
2023-05-20T08:18:39.769Z,8.82
2023-05-20T08:21:10.324Z,9.23
2023-05-20T08:23:40.202Z,7.63
2023-05-20T08:26:08.018Z,8.43
2023-05-20T08:28:38.342Z,8.40
2023-05-20T08:31:05.653Z,8.45
2023-05-20T08:33:33.466Z,8.85
2023-05-20T08:36:01.077Z,8.20
2023-05-20T08:38:29.015Z,7.78
2023-05-20T08:40:57.820Z,7.50
2023-05-20T08:43:26.034Z,7.67
2023-05-20T08:45:53.433Z,8.05
2023-05-20T08:48:23.980Z,8.00
2023-05-20T08:50:52.601Z,7.57
2023-05-20T08:53:22.297Z,7.13
2023-05-20T08:55:54.591Z,10.52
2023-05-20T08:58:23.642Z,8.35
2023-05-20T09:00:51.820Z,8.05
2023-05-20T09:03:20.628Z,7.38
2023-05-20T09:05:48.392Z,7.00
2023-05-20T09:08:15.552Z,8.32
2023-05-20T09:10:43.121Z,7.95
2023-05-20T09:13:11.742Z,7.88
2023-05-20T09:15:39.329Z,7.97
2023-05-20T09:18:08.748Z,7.53
2023-05-20T09:20:41.488Z,8.25
2023-05-20T09:23:10.909Z,7.43
2023-05-20T09:25:38.277Z,7.78
2023-05-20T09:28:07.735Z,7.47
2023-05-20T09:30:35.073Z,8.05
2023-05-20T09:33:05.376Z,8.15
2023-05-20T09:35:37.320Z,7.78
2023-05-20T09:38:07.797Z,7.43
2023-05-20T09:40:38.141Z,6.88
2023-05-20T09:43:11.662Z,7.47
2023-05-20T09:45:39.038Z,8.25
2023-05-20T09:48:09.256Z,7.13
2023-05-20T09:50:37.042Z,9.30
2023-05-20T09:53:05.215Z,7.05
2023-05-20T09:55:33.379Z,6.40
2023-05-20T09:58:03.660Z,7.60
2023-05-20T10:00:31.022Z,7.38
2023-05-20T10:02:59.141Z,7.10
2023-05-20T10:05:31.086Z,7.45
2023-05-20T10:08:16.892Z,6.68
2023-05-20T10:10:56.260Z,7.15
2023-05-20T10:13:38.498Z,9.82
2023-05-20T10:16:24.708Z,7.50
2023-05-20T10:18:57.393Z,6.95
2023-05-20T10:21:25.585Z,6.90
2023-05-20T10:23:52.915Z,7.20
2023-05-20T10:26:20.183Z,8.13
2023-05-20T10:28:47.741Z,7.32
2023-05-20T10:31:21.710Z,6.78
2023-05-20T10:33:49.811Z,7.25
2023-05-20T10:36:30.901Z,8.40
2023-05-20T10:38:59.783Z,7.53
2023-05-20T10:41:28.915Z,7.25
2023-05-20T10:44:06.829Z,7.30
2023-05-20T10:46:48.660Z,7.75
2023-05-20T10:49:26.168Z,7.60
2023-05-20T10:51:54.531Z,7.78
2023-05-20T10:54:23.166Z,7.25
2023-05-20T10:56:54.222Z,7.18
2023-05-20T10:59:22.252Z,7.55
2023-05-20T11:01:49.676Z,7.25
2023-05-20T11:04:17.752Z,7.35
2023-05-20T11:06:53.800Z,7.13
2023-05-20T11:09:21.196Z,7.32
2023-05-20T11:11:48.630Z,7.10
2023-05-20T11:14:16.702Z,7.15
2023-05-20T11:16:44.154Z,7.10
2023-05-20T11:19:19.340Z,8.50
2023-05-20T11:21:47.316Z,6.93
2023-05-20T11:24:14.674Z,7.75
2023-05-20T11:26:41.897Z,7.55
2023-05-20T11:29:08.956Z,7.18
2023-05-20T11:31:39.313Z,7.57
2023-05-20T11:34:06.394Z,7.07
2023-05-20T11:36:33.714Z,7.13
2023-05-20T11:39:01.191Z,7.55
2023-05-20T11:41:29.223Z,7.15
2023-05-20T11:44:00.588Z,6.85
2023-05-20T11:46:28.234Z,8.65
2023-05-20T11:48:56.363Z,7.82
2023-05-20T11:51:30.391Z,7.82
2023-05-20T11:54:02.285Z,7.70
2023-05-20T11:56:34.858Z,7.32
2023-05-20T11:59:01.885Z,7.35
2023-05-20T12:01:46.000Z,7.22
2023-05-20T12:04:16.771Z,6.72
2023-05-20T12:06:44.371Z,7.03
2023-05-20T12:09:12.056Z,7.25
2023-05-20T12:11:41.928Z,7.05
2023-05-20T12:14:09.907Z,7.05
2023-05-20T12:16:38.340Z,7.05
2023-05-20T12:19:05.933Z,7.07
2023-05-20T12:21:33.032Z,7.18
2023-05-20T12:24:00.503Z,8.15
2023-05-20T12:26:29.017Z,7.80
2023-05-20T12:28:56.579Z,6.87
2023-05-20T12:31:23.901Z,7.47
2023-05-20T12:33:51.050Z,6.85
2023-05-20T12:36:19.861Z,7.50
2023-05-20T12:38:47.193Z,7.10
2023-05-20T12:41:14.464Z,7.32
2023-05-20T12:43:41.476Z,8.68
2023-05-20T12:46:08.572Z,6.82
2023-05-20T12:48:35.847Z,8.38
2023-05-20T12:51:02.813Z,7.03
2023-05-20T12:53:29.782Z,7.68
2023-05-20T12:55:56.809Z,6.65
2023-05-20T12:58:23.901Z,6.43
2023-05-20T13:00:50.995Z,7.00
2023-05-20T13:03:18.285Z,6.60
2023-05-20T13:05:45.445Z,6.63
2023-05-20T13:08:13.127Z,7.18
2023-05-20T13:10:40.176Z,7.32
2023-05-20T13:13:07.204Z,8.10
2023-05-20T13:15:34.212Z,6.85
2023-05-20T13:18:06.144Z,6.82
2023-05-20T13:20:35.901Z,6.63
2023-05-20T13:23:03.233Z,7.10
2023-05-20T13:25:30.178Z,7.35
2023-05-20T13:27:57.116Z,7.32
2023-05-20T13:30:24.053Z,7.15
2023-05-20T13:32:51.985Z,8.18
2023-05-20T13:35:19.137Z,7.25
2023-05-20T13:37:46.202Z,7.80
2023-05-20T13:40:13.562Z,7.20
2023-05-20T13:42:40.625Z,9.82
2023-05-20T13:45:08.188Z,7.30
2023-05-20T13:47:35.313Z,6.75
2023-05-20T13:50:03.406Z,7.40
2023-05-20T13:52:30.500Z,6.80
2023-05-20T13:54:57.505Z,6.85
2023-05-20T13:57:24.485Z,6.38
2023-05-20T13:59:51.436Z,6.47
2023-05-20T14:02:18.820Z,7.00
2023-05-20T14:04:47.304Z,6.70
2023-05-20T14:07:14.636Z,6.63
2023-05-20T14:09:41.731Z,7.03
2023-05-20T14:12:08.912Z,7.00
2023-05-20T14:14:35.939Z,6.65
2023-05-20T14:17:03.029Z,7.97
2023-05-20T14:19:30.383Z,6.70
2023-05-20T14:21:59.177Z,7.22
2023-05-20T14:24:26.130Z,6.90
2023-05-20T14:26:53.631Z,6.65
2023-05-20T14:29:20.866Z,6.57
2023-05-20T14:31:47.973Z,6.53
2023-05-20T14:34:14.994Z,5.63
2023-05-20T14:36:42.317Z,6.43
2023-05-20T14:39:09.973Z,7.88
2023-05-20T14:41:36.979Z,7.07
2023-05-20T14:44:03.943Z,6.95
2023-05-20T14:46:31.333Z,7.28
2023-05-20T14:48:58.357Z,6.45
2023-05-20T14:51:25.769Z,6.25
2023-05-20T14:53:52.832Z,6.57
2023-05-20T14:56:19.931Z,6.55
2023-05-20T14:58:46.898Z,6.70
2023-05-20T15:01:14.191Z,6.75
2023-05-20T15:03:41.373Z,6.47
2023-05-20T15:06:08.366Z,7.55
2023-05-20T15:08:35.471Z,6.22
2023-05-20T15:11:02.429Z,6.20
2023-05-20T15:13:29.521Z,8.02
2023-05-20T15:15:56.783Z,6.68
2023-05-20T15:18:23.848Z,6.40
2023-05-20T15:20:50.919Z,6.72
2023-05-20T15:23:18.150Z,6.82
2023-05-20T15:25:48.393Z,6.93
2023-05-20T15:28:15.603Z,6.65
2023-05-20T15:30:42.639Z,6.13
2023-05-20T15:33:09.975Z,6.15
2023-05-20T15:35:37.102Z,6.03
2023-05-20T15:38:04.194Z,7.20
2023-05-20T15:40:32.274Z,5.97
2023-05-20T15:43:00.787Z,6.20
2023-05-20T15:45:28.017Z,6.47
2023-05-20T15:47:55.153Z,6.80
2023-05-20T15:50:23.189Z,7.00
2023-05-20T15:52:53.583Z,6.53
2023-05-20T15:55:23.336Z,6.95
2023-05-20T15:57:51.492Z,7.30
2023-05-20T16:00:20.003Z,7.05
2023-05-20T16:02:47.285Z,7.03
2023-05-20T16:05:14.997Z,7.88
2023-05-20T16:07:43.072Z,7.68
2023-05-20T16:10:10.901Z,7.50
2023-05-20T16:12:38.016Z,7.75
2023-05-20T16:15:05.340Z,7.40
2023-05-20T16:17:32.488Z,7.75
2023-05-20T16:19:59.531Z,7.72
2023-05-20T16:22:26.644Z,8.95
2023-05-20T16:24:53.618Z,7.28
2023-05-20T16:27:20.869Z,7.40
2023-05-20T16:29:47.906Z,7.28
2023-05-20T16:32:15.014Z,7.93
2023-05-20T16:34:42.064Z,8.27
2023-05-20T16:37:10.480Z,7.85
2023-05-20T16:39:37.460Z,7.25
2023-05-20T16:42:04.696Z,9.18
2023-05-20T16:44:31.769Z,9.00
2023-05-20T16:46:58.821Z,9.65
2023-05-20T16:49:25.784Z,8.00
2023-05-20T16:51:52.971Z,7.93
2023-05-20T16:54:20.038Z,8.57
2023-05-20T16:56:47.068Z,9.48
2023-05-20T16:59:15.028Z,8.65
2023-05-20T17:01:42.058Z,8.48
2023-05-20T17:04:09.407Z,8.35
2023-05-20T17:06:36.899Z,9.10
2023-05-20T17:09:04.867Z,8.40
2023-05-20T17:11:32.039Z,7.72
2023-05-20T17:13:59.462Z,9.13
2023-05-20T17:16:26.797Z,8.00
2023-05-20T17:18:54.023Z,7.90
2023-05-20T17:21:21.370Z,8.68
2023-05-20T17:23:48.552Z,9.23
2023-05-20T17:26:32.372Z,8.80
2023-05-20T17:29:05.650Z,8.20
2023-05-20T17:31:32.829Z,8.57
2023-05-20T17:33:59.996Z,8.43
2023-05-20T17:36:27.147Z,10.05
2023-05-20T17:38:54.212Z,9.38
2023-05-20T17:41:22.122Z,8.25
2023-05-20T17:43:49.136Z,10.45
2023-05-20T17:46:16.609Z,10.13
2023-05-20T17:48:45.108Z,9.13
2023-05-20T17:51:12.195Z,9.00
2023-05-20T17:53:39.253Z,10.10
2023-05-20T17:56:06.904Z,9.15
2023-05-20T17:58:34.020Z,9.65
2023-05-20T18:01:01.667Z,8.98
2023-05-20T18:03:29.418Z,10.15
2023-05-20T18:05:56.869Z,8.90
2023-05-20T18:08:25.604Z,9.68
2023-05-20T18:10:53.189Z,9.90
2023-05-20T18:13:20.119Z,9.70
2023-05-20T18:15:47.337Z,10.30
2023-05-20T18:18:14.367Z,9.80
2023-05-20T18:20:41.472Z,9.43
2023-05-20T18:23:08.472Z,9.27
2023-05-20T18:25:35.684Z,9.18
2023-05-20T18:28:03.374Z,10.95
2023-05-20T18:30:30.349Z,9.25
2023-05-20T18:32:57.697Z,9.35
2023-05-20T18:35:24.695Z,10.10
2023-05-20T18:37:52.101Z,9.93
2023-05-20T18:40:21.873Z,9.88
2023-05-20T18:42:48.922Z,9.15
2023-05-20T18:45:15.945Z,9.35
2023-05-20T18:47:43.067Z,8.93
2023-05-20T18:50:10.947Z,9.35
2023-05-20T18:52:38.106Z,9.60
2023-05-20T18:55:05.400Z,9.48
2023-05-20T18:57:32.356Z,8.82
2023-05-20T18:59:59.443Z,9.07
2023-05-20T19:02:26.527Z,9.02
2023-05-20T19:04:53.635Z,9.60
2023-05-20T19:07:20.789Z,10.18
2023-05-20T19:09:47.770Z,8.77
2023-05-20T19:12:15.913Z,9.13
2023-05-20T19:14:42.994Z,8.45
2023-05-20T19:17:10.031Z,9.05
2023-05-20T19:19:37.024Z,8.60
2023-05-20T19:22:04.058Z,9.45
2023-05-20T19:24:32.150Z,9.20
2023-05-20T19:26:59.552Z,9.43
2023-05-20T19:29:27.031Z,9.18
2023-05-20T19:31:55.918Z,9.35
2023-05-20T19:34:23.708Z,9.85
2023-05-20T19:36:51.000Z,9.40
2023-05-20T19:39:18.062Z,9.07
2023-05-20T19:41:45.028Z,9.68
2023-05-20T19:44:12.150Z,9.30
2023-05-20T19:46:39.300Z,8.65
2023-05-20T19:49:06.598Z,8.63
2023-05-20T19:51:33.773Z,9.27
2023-05-20T19:54:01.006Z,11.38
2023-05-20T19:56:28.270Z,12.30
2023-05-20T19:58:55.288Z,10.75
2023-05-20T20:01:22.325Z,11.43
2023-05-20T20:03:49.300Z,11.18
2023-05-20T20:06:16.278Z,11.88
2023-05-20T20:08:43.256Z,11.93
2023-05-20T20:11:10.674Z,11.23
2023-05-20T20:13:37.643Z,11.48
2023-05-20T20:16:04.856Z,11.73
2023-05-20T20:18:34.860Z,11.70
2023-05-20T20:21:05.619Z,10.63
2023-05-20T20:23:33.309Z,10.30
2023-05-20T20:26:00.324Z,11.07
2023-05-20T20:28:27.317Z,10.57
2023-05-20T20:30:54.276Z,11.27
2023-05-20T20:33:21.264Z,11.18
2023-05-20T20:35:48.825Z,10.48
2023-05-20T20:38:16.334Z,11.45
2023-05-20T20:40:45.170Z,11.35
2023-05-20T20:43:20.440Z,10.70
2023-05-20T20:45:51.097Z,11.63
2023-05-20T20:48:19.094Z,11.20
2023-05-20T20:50:48.251Z,11.77
2023-05-20T20:53:19.250Z,10.60
2023-05-20T20:55:51.523Z,11.52
2023-05-20T20:58:19.230Z,12.27
2023-05-20T21:00:48.944Z,10.93
2023-05-20T21:03:16.212Z,11.35
2023-05-20T21:05:43.244Z,10.88
2023-05-20T21:08:10.894Z,12.30
2023-05-20T21:10:38.438Z,9.88
2023-05-20T21:13:05.722Z,10.07
2023-05-20T21:15:32.729Z,10.27
2023-05-20T21:17:59.852Z,10.43
2023-05-20T21:20:26.930Z,11.02
2023-05-20T21:22:54.011Z,10.98
2023-05-20T21:25:21.118Z,10.45
2023-05-20T21:27:48.183Z,9.85
2023-05-20T21:30:16.617Z,10.25
2023-05-20T21:32:43.698Z,10.43
2023-05-20T21:35:11.849Z,10.95
2023-05-20T21:37:38.822Z,11.13
2023-05-20T21:40:06.642Z,11.80
2023-05-20T21:42:33.793Z,10.68
2023-05-20T21:45:00.800Z,10.57
2023-05-20T21:47:28.000Z,10.45
2023-05-20T21:49:55.097Z,9.95
2023-05-20T21:52:22.106Z,10.10
2023-05-20T21:54:49.461Z,10.02
2023-05-20T21:57:16.549Z,10.75
2023-05-20T21:59:43.568Z,10.60
2023-05-20T22:02:10.704Z,11.10
2023-05-20T22:04:37.697Z,9.65
2023-05-20T22:07:04.806Z,10.45
2023-05-20T22:09:31.944Z,10.48
2023-05-20T22:12:00.163Z,10.65
2023-05-20T22:14:27.545Z,10.85
2023-05-20T22:16:55.874Z,10.65
2023-05-20T22:19:22.859Z,10.93
2023-05-20T22:21:51.168Z,11.05
2023-05-20T22:24:18.644Z,10.68
2023-05-20T22:26:45.813Z,11.07
2023-05-20T22:29:12.710Z,11.48
2023-05-20T22:31:39.893Z,10.55
2023-05-20T22:34:07.028Z,11.82
2023-05-20T22:36:34.433Z,11.43
2023-05-20T22:39:02.563Z,10.70
2023-05-20T22:41:29.828Z,10.85
2023-05-20T22:43:59.681Z,11.05
2023-05-20T22:46:26.814Z,12.05
2023-05-20T22:48:54.737Z,11.27
2023-05-20T22:51:22.568Z,11.35
2023-05-20T22:53:49.606Z,10.90
2023-05-20T22:56:17.788Z,15.70
2023-05-20T22:58:46.013Z,11.80
2023-05-20T23:01:13.514Z,11.50
2023-05-20T23:03:40.604Z,12.50
2023-05-20T23:06:07.797Z,12.32
2023-05-20T23:08:34.789Z,11.70
2023-05-20T23:11:01.787Z,11.73
2023-05-20T23:13:28.718Z,11.13
2023-05-20T23:15:55.668Z,10.82
2023-05-20T23:18:22.730Z,10.98
2023-05-20T23:20:50.574Z,10.85
2023-05-20T23:23:20.774Z,10.75
2023-05-20T23:25:54.976Z,10.75
2023-05-20T23:28:22.017Z,10.73
2023-05-20T23:30:49.405Z,10.68
2023-05-20T23:33:17.706Z,11.38
2023-05-20T23:35:46.429Z,11.05
2023-05-20T23:38:13.386Z,9.88
2023-05-20T23:40:40.356Z,11.02
2023-05-20T23:43:07.361Z,11.38
2023-05-20T23:45:34.623Z,10.40
2023-05-20T23:48:02.160Z,11.07
2023-05-20T23:50:29.208Z,10.13
2023-05-20T23:52:56.309Z,10.95
2023-05-20T23:55:23.442Z,11.27
2023-05-20T23:57:50.403Z,10.55
